Time;durP1;ratioP1;P1;durP2;ratioP2;P2;SDS_P1;SDS_P2;PMS_P1;PMS_P2;Temp;Humidity;BMP_temperature;BMP_pressure;BME280_temperature;BME280_humidity;BME280_pressure;Samples;Min_cycle;Max_cycle;Signal;HPM_P1;HPM_P2
2021/10/24 00:00:39;;;;;;;23.75;16.52;;;;;;;4.43;100.00;102331.06;5004799;28;20391;-87
2021/10/24 00:03:05;;;;;;;27.15;16.52;;;;;;;4.43;100.00;102323.06;4988722;28;20124;-87
2021/10/24 00:05:31;;;;;;;25.30;16.13;;;;;;;4.44;100.00;102335.44;4971208;28;20080;-87
2021/10/24 00:07:57;;;;;;;25.45;17.02;;;;;;;4.43;100.00;102334.59;4972519;28;20053;-86
2021/10/24 00:10:22;;;;;;;25.88;16.00;;;;;;;4.43;100.00;102328.41;4977086;28;20406;-85
2021/10/24 00:12:47;;;;;;;23.67;16.75;;;;;;;4.43;100.00;102328.41;4987263;28;20038;-83
2021/10/24 00:15:13;;;;;;;28.67;17.65;;;;;;;4.44;100.00;102328.31;4983539;28;20034;-86
2021/10/24 00:17:41;;;;;;;24.30;16.02;;;;;;;4.43;100.00;102325.75;4991125;28;20049;-86
2021/10/24 00:20:08;;;;;;;23.45;16.33;;;;;;;4.42;100.00;102324.88;5002224;28;20042;-82
2021/10/24 00:22:33;;;;;;;25.10;16.13;;;;;;;4.39;100.00;102329.53;4981155;28;20255;-86
2021/10/24 00:24:59;;;;;;;24.35;16.45;;;;;;;4.42;100.00;102332.84;4972036;28;20084;-86
2021/10/24 00:27:24;;;;;;;27.98;18.27;;;;;;;4.42;100.00;102332.00;4999769;28;20046;-83
2021/10/24 00:29:50;;;;;;;27.48;20.35;;;;;;;4.43;100.00;102331.94;4990753;28;20144;-84
2021/10/24 00:32:15;;;;;;;23.55;16.38;;;;;;;4.33;100.00;102322.75;4971048;28;20112;-84
2021/10/24 00:34:43;;;;;;;29.25;16.95;;;;;;;4.33;100.00;102325.41;4976382;28;20038;-82
2021/10/24 00:37:09;;;;;;;28.55;17.25;;;;;;;4.29;100.00;102319.41;4999126;28;20650;-83
2021/10/24 00:39:34;;;;;;;27.90;17.15;;;;;;;4.30;100.00;102323.78;4984109;28;20041;-83
2021/10/24 00:42:07;;;;;;;25.15;16.70;;;;;;;4.28;100.00;102315.03;4988161;28;20061;-85
2021/10/24 00:44:33;;;;;;;24.92;17.05;;;;;;;4.26;100.00;102319.59;4998406;28;20116;-85
2021/10/24 00:47:01;;;;;;;30.23;17.42;;;;;;;4.29;100.00;102318.56;4999902;28;20054;-82
2021/10/24 00:49:27;;;;;;;23.85;17.30;;;;;;;4.30;100.00;102313.16;4999061;28;20038;-82
2021/10/24 00:51:55;;;;;;;26.58;16.00;;;;;;;4.27;100.00;102310.66;4993955;28;20029;-84
2021/10/24 00:54:28;;;;;;;25.05;17.80;;;;;;;4.32;100.00;102307.75;4990816;28;20041;-82
2021/10/24 00:56:55;;;;;;;27.17;16.27;;;;;;;4.27;100.00;102309.81;4976908;28;20029;-81
2021/10/24 00:59:23;;;;;;;30.77;18.45;;;;;;;4.27;100.00;102308.00;4986550;28;20050;-84
2021/10/24 01:01:49;;;;;;;26.73;16.77;;;;;;;4.25;100.00;102303.72;5000320;28;20030;-86
2021/10/24 01:04:19;;;;;;;27.17;17.63;;;;;;;4.27;100.00;102309.81;4984785;28;20524;-82
2021/10/24 01:06:49;;;;;;;30.77;17.50;;;;;;;4.25;100.00;102303.72;4998788;28;20116;-83
2021/10/24 01:09:15;;;;;;;;;;;;;;;4.25;100.00;102301.06;4979378;28;20636;-83
2021/10/24 01:11:41;;;;;;;27.75;16.48;;;;;;;4.14;100.00;102299.00;4995251;28;19960;-85
2021/10/24 01:14:14;;;;;;;25.08;16.17;;;;;;;4.16;100.00;102291.81;4982404;28;20169;-86
2021/10/24 01:16:42;;;;;;;25.15;16.33;;;;;;;4.17;100.00;102297.97;4979643;28;20042;-84
2021/10/24 01:19:10;;;;;;;24.40;16.40;;;;;;;4.15;100.00;102295.41;4997556;28;20054;-82
2021/10/24 01:21:39;;;;;;;24.45;16.33;;;;;;;4.20;100.00;102282.75;4978130;28;20042;-85
2021/10/24 01:24:06;;;;;;;26.48;15.52;;;;;;;4.18;100.00;102289.94;4994600;28;20490;-84
2021/10/24 01:26:34;;;;;;;27.35;17.42;;;;;;;4.23;100.00;102282.56;4983418;28;20077;-84
2021/10/24 01:29:02;;;;;;;30.75;18.38;;;;;;;4.22;100.00;102278.16;4981999;28;20077;-83
2021/10/24 01:31:27;;;;;;;25.08;16.75;;;;;;;4.26;100.00;102277.06;4996428;28;20045;-83
2021/10/24 01:33:53;;;;;;;25.70;16.45;;;;;;;4.26;100.00;102270.91;4979003;28;20043;-85
2021/10/24 01:36:20;;;;;;;25.25;15.60;;;;;;;4.27;100.00;102275.28;4984600;28;20030;-85
2021/10/24 01:38:49;;;;;;;28.13;16.75;;;;;;;4.27;100.00;102277.94;4999546;28;20038;-83
2021/10/24 01:41:15;;;;;;;24.15;16.88;;;;;;;4.33;100.00;102274.06;4997300;28;20042;-83
2021/10/24 01:43:42;;;;;;;25.02;16.77;;;;;;;4.33;100.00;102263.44;4987211;28;20054;-83
2021/10/24 01:46:09;;;;;;;25.08;15.35;;;;;;;4.38;100.00;102272.00;4998187;28;21494;-83
2021/10/24 01:48:34;;;;;;;25.20;15.90;;;;;;;4.35;100.00;102266.88;5006686;28;20128;-83
2021/10/24 01:51:00;;;;;;;24.00;15.50;;;;;;;4.33;100.00;102269.59;5006219;28;20474;-87
2021/10/24 01:53:29;;;;;;;26.92;15.63;;;;;;;4.37;100.00;102259.63;5008668;28;20096;-84
2021/10/24 01:55:55;;;;;;;23.17;15.93;;;;;;;4.43;100.00;102252.19;4971881;28;20034;-84
2021/10/24 01:58:21;;;;;;;25.45;16.55;;;;;;;4.44;100.00;102258.34;5005260;28;20039;-86
2021/10/24 02:00:51;;;;;;;23.73;14.68;;;;;;;4.44;100.00;102255.69;4990457;28;20429;-86
2021/10/24 02:03:23;;;;;;;24.00;16.27;;;;;;;4.47;100.00;102252.88;5008117;28;20049;-83
2021/10/24 02:05:50;;;;;;;23.17;15.60;;;;;;;4.47;100.00;102248.41;4999189;28;20518;-83
2021/10/24 02:08:15;;;;;;;25.02;15.50;;;;;;;4.46;100.00;102245.81;4989858;28;20041;-82
2021/10/24 02:10:49;;;;;;;23.58;16.20;;;;;;;4.49;100.00;102241.19;5004507;28;20038;-86
2021/10/24 02:13:15;;;;;;;24.00;14.20;;;;;;;4.42;100.00;102245.16;5004390;28;20049;-85
2021/10/24 02:15:41;;;;;;;23.52;16.10;;;;;;;4.41;100.00;102238.13;4999120;28;20046;-84
2021/10/24 02:18:08;;;;;;;25.15;15.77;;;;;;;4.48;100.00;102238.63;4990997;28;20053;-84
2021/10/24 02:20:34;;;;;;;23.63;15.77;;;;;;;4.48;100.00;102233.31;4974504;28;20057;-82
2021/10/24 02:23:02;;;;;;;23.13;14.82;;;;;;;4.45;100.00;102233.47;4988713;28;20045;-82
2021/10/24 02:25:29;;;;;;;25.42;16.08;;;;;;;4.48;100.00;102217.34;5004968;28;20046;-83
2021/10/24 02:27:54;;;;;;;25.75;16.08;;;;;;;4.51;100.00;102227.81;5005496;28;20045;-84
2021/10/24 02:30:21;;;;;;;26.02;14.93;;;;;;;4.48;100.00;102223.50;5001006;28;20038;-83
2021/10/24 02:32:47;;;;;;;24.98;15.93;;;;;;;4.51;100.00;102222.47;4990916;28;20112;-84
2021/10/24 02:35:24;;;;;;;23.02;15.45;;;;;;;4.51;100.00;102219.81;4974906;28;20042;-83
2021/10/24 02:37:50;;;;;;;24.67;16.02;;;;;;;4.48;100.00;102209.38;4989748;28;20052;-82
2021/10/24 02:40:23;;;;;;;21.23;14.95;;;;;;;4.49;100.00;102216.41;5005233;28;20038;-84
2021/10/24 02:42:53;;;;;;;26.77;15.85;;;;;;;4.50;100.00;102210.16;4998637;28;20046;-85
2021/10/24 02:45:20;;;;;;;27.70;16.65;;;;;;;4.49;100.00;102205.78;4974178;28;20049;-81
2021/10/24 02:47:46;;;;;;;23.85;17.02;;;;;;;4.47;100.00;102213.00;5006153;28;20042;-82
2021/10/24 02:50:12;;;;;;;24.80;16.20;;;;;;;4.48;100.00;102217.34;4998494;28;20087;-82
2021/10/24 02:52:39;;;;;;;22.88;15.43;;;;;;;4.50;100.00;102210.16;4990893;28;20033;-81
2021/10/24 02:55:08;;;;;;;23.92;15.02;;;;;;;4.45;100.00;102206.91;4972034;28;20045;-83
2021/10/24 02:57:35;;;;;;;21.00;14.07;;;;;;;4.45;100.00;102205.09;5003304;28;20057;-81
2021/10/24 03:00:05;;;;;;;23.17;14.57;;;;;;;4.46;100.00;102201.50;4988808;28;20386;-85
2021/10/24 03:02:32;;;;;;;20.92;14.00;;;;;;;4.45;100.00;102198.91;5003789;28;20116;-86
2021/10/24 03:04:58;;;;;;;23.48;14.57;;;;;;;4.41;100.00;102197.41;5004221;28;20037;-85
2021/10/24 03:07:24;;;;;;;24.25;14.45;;;;;;;4.43;100.00;102198.16;4971113;28;21170;-83
2021/10/24 03:09:50;;;;;;;25.33;15.50;;;;;;;4.41;100.00;102194.75;5003346;28;20057;-86
2021/10/24 03:12:15;;;;;;;24.40;15.02;;;;;;;4.40;100.00;102191.25;4993527;28;20041;-84
2021/10/24 03:14:42;;;;;;;25.73;15.70;;;;;;;4.38;100.00;102192.28;5003703;28;20049;-80
2021/10/24 03:17:07;;;;;;;22.65;15.00;;;;;;;4.32;100.00;102188.16;5000533;28;20053;-80
2021/10/24 03:19:34;;;;;;;23.63;15.43;;;;;;;4.27;100.00;102193.75;5003226;28;20044;-82
2021/10/24 03:22:00;;;;;;;24.67;15.90;;;;;;;4.25;100.00;102190.31;4999846;28;20497;-82
2021/10/24 03:24:26;;;;;;;24.75;16.17;;;;;;;4.20;100.00;102189.75;4982600;28;20052;-81
2021/10/24 03:26:51;;;;;;;23.70;15.80;;;;;;;4.16;100.00;102190.84;4984584;28;20046;-85
2021/10/24 03:29:18;;;;;;;26.35;15.68;;;;;;;4.12;100.00;102191.13;4971624;28;20037;-83
2021/10/24 03:31:45;;;;;;;21.60;15.15;;;;;;;4.13;100.00;102191.03;4990313;28;20489;-83
2021/10/24 03:34:13;;;;;;;24.75;16.23;;;;;;;4.13;100.00;102190.19;5004290;28;20479;-82
2021/10/24 03:36:39;;;;;;;27.38;17.15;;;;;;;4.03;100.00;102185.41;4991072;28;20057;-84
2021/10/24 03:39:05;;;;;;;25.05;17.10;;;;;;;4.01;100.00;102186.41;4982601;28;20042;-85
2021/10/24 03:41:31;;;;;;;26.50;17.15;;;;;;;3.96;100.00;102188.47;5000274;28;20048;-84
2021/10/24 03:43:56;;;;;;;25.48;16.83;;;;;;;3.97;100.00;102184.88;4970148;28;20038;-82
2021/10/24 03:46:22;;;;;;;24.70;15.88;;;;;;;3.96;100.00;102177.84;4999179;28;20053;-81
2021/10/24 03:48:47;;;;;;;27.25;16.73;;;;;;;3.98;100.00;102183.94;4988995;28;20065;-83
2021/10/24 03:51:18;;;;;;;24.58;15.45;;;;;;;3.93;100.00;102184.19;4986718;28;20099;-83
2021/10/24 03:53:47;;;;;;;25.92;16.85;;;;;;;3.91;100.00;102187.88;4968314;28;20042;-88
2021/10/24 03:56:13;;;;;;;29.08;17.67;;;;;;;3.93;100.00;102180.69;4972997;28;20026;-85
2021/10/24 03:58:39;;;;;;;27.98;16.48;;;;;;;3.87;100.00;102178.38;5003021;28;20043;-86
2021/10/24 04:01:05;;;;;;;25.92;16.30;;;;;;;3.84;100.00;102188.22;4982708;28;20030;-85
2021/10/24 04:03:34;;;;;;;29.48;17.60;;;;;;;3.83;100.00;102188.34;4986648;28;20053;-84
2021/10/24 04:06:06;;;;;;;29.85;17.25;;;;;;;3.76;100.00;102179.81;5001690;28;20038;-83
2021/10/24 04:08:31;;;;;;;29.45;18.80;;;;;;;3.75;100.00;102185.25;4999190;28;20072;-84
2021/10/24 04:10:57;;;;;;;26.40;16.65;;;;;;;3.67;100.00;102183.00;4994381;28;20050;-82
2021/10/24 04:13:23;;;;;;;29.42;17.52;;;;;;;3.65;100.00;102179.56;4981764;28;20046;-83
2021/10/24 04:15:48;;;;;;;28.75;18.08;;;;;;;3.64;100.00;102183.19;4982475;28;20065;-81
2021/10/24 04:18:14;;;;;;;27.33;16.90;;;;;;;3.59;100.00;102179.91;5001088;28;20104;-81
2021/10/24 04:20:39;;;;;;;27.65;16.90;;;;;;;3.57;100.00;102185.31;4988630;28;20034;-83
2021/10/24 04:23:11;;;;;;;24.85;17.25;;;;;;;3.57;100.00;102179.16;4982175;28;20050;-84
2021/10/24 04:25:38;;;;;;;28.52;18.48;;;;;;;3.50;100.00;102183.09;4986316;28;20049;-82
2021/10/24 04:28:05;;;;;;;29.67;18.67;;;;;;;3.47;100.00;102180.59;4971236;28;20069;-82
2021/10/24 04:30:32;;;;;;;29.65;19.38;;;;;;;3.50;100.00;102178.63;4988697;28;20639;-84
2021/10/24 04:32:59;;;;;;;28.42;16.75;;;;;;;3.43;100.00;102182.56;4986381;28;20084;-83
2021/10/24 04:35:24;;;;;;;28.00;19.35;;;;;;;3.42;100.00;102183.50;4987012;28;20139;-86
2021/10/24 04:37:52;;;;;;;32.53;18.23;;;;;;;3.43;100.00;102179.06;4986773;28;20042;-81
2021/10/24 04:40:19;;;;;;;30.20;18.23;;;;;;;3.43;100.00;102177.28;4987880;28;20046;-84
2021/10/24 04:42:48;;;;;;;24.95;17.20;;;;;;;3.37;100.00;102178.47;4979858;28;20145;-83
2021/10/24 04:45:15;;;;;;;30.45;19.05;;;;;;;3.38;100.00;102176.66;4979572;28;20038;-84
2021/10/24 04:47:40;;;;;;;28.20;18.25;;;;;;;3.34;100.00;102175.97;4979862;28;20204;-83
2021/10/24 04:50:08;;;;;;;28.45;18.75;;;;;;;3.32;100.00;102175.19;5002623;28;20116;-82
2021/10/24 04:52:36;;;;;;;33.10;20.45;;;;;;;3.33;100.00;102173.38;5001255;28;20050;-80
2021/10/24 04:55:05;;;;;;;31.00;19.00;;;;;;;3.28;100.00;102171.00;5004885;28;20037;-87
2021/10/24 04:57:31;;;;;;;31.42;19.85;;;;;;;3.33;100.00;102165.44;5001469;28;20044;-85
2021/10/24 04:59:56;;;;;;;30.45;20.83;;;;;;;3.36;100.00;102165.25;4985291;28;20052;-84
2021/10/24 05:02:22;;;;;;;30.45;20.55;;;;;;;3.36;100.00;102163.47;5002879;28;20042;-82
2021/10/24 05:04:48;;;;;;;32.10;20.15;;;;;;;3.42;100.00;102167.56;4990040;28;20049;-82
2021/10/24 05:07:15;;;;;;;29.90;21.42;;;;;;;3.43;100.00;102160.50;4998972;28;20042;-86
2021/10/24 05:09:40;;;;;;;30.05;20.05;;;;;;;3.39;100.00;102158.00;5004873;28;20116;-85
2021/10/24 05:12:07;;;;;;;33.28;21.30;;;;;;;3.41;100.00;102152.59;4987598;28;20084;-87
2021/10/24 05:14:33;;;;;;;34.83;19.83;;;;;;;3.37;100.00;102154.59;4995465;28;20065;-81
2021/10/24 05:16:59;;;;;;;30.17;19.85;;;;;;;3.42;100.00;102150.81;4987529;28;20042;-85
2021/10/24 05:19:24;;;;;;;29.83;19.73;;;;;;;3.42;100.00;102146.34;4979553;28;20091;-84
2021/10/24 05:21:51;;;;;;;34.20;18.77;;;;;;;3.40;100.00;102148.25;4971549;28;20026;-81
2021/10/24 05:24:18;;;;;;;30.95;20.23;;;;;;;3.37;100.00;102149.28;4971708;28;20030;-81
2021/10/24 05:26:44;;;;;;;30.67;20.23;;;;;;;3.34;100.00;102149.44;4984898;28;20038;-82
2021/10/24 05:29:11;;;;;;;31.73;18.92;;;;;;;3.32;100.00;102151.31;4974194;28;20038;-86
2021/10/24 05:31:38;;;;;;;31.90;21.30;;;;;;;3.36;100.00;102142.22;4989980;28;20042;-82
2021/10/24 05:34:04;;;;;;;31.70;19.35;;;;;;;3.31;100.00;102143.44;4995076;28;20045;-86
2021/10/24 05:36:31;;;;;;;35.13;19.98;;;;;;;3.24;100.00;102137.59;4978743;28;20835;-84
2021/10/24 05:38:58;;;;;;;29.30;18.50;;;;;;;3.21;100.00;102137.78;5004663;28;20482;-85
2021/10/24 05:41:24;;;;;;;30.58;21.10;;;;;;;3.23;100.00;102141.22;4994125;28;20038;-82
2021/10/24 05:43:49;;;;;;;30.75;18.58;;;;;;;3.22;100.00;102138.63;5005011;28;20046;-82
2021/10/24 05:46:21;;;;;;;33.22;21.58;;;;;;;3.21;100.00;102137.78;5003287;28;20557;-85
2021/10/24 05:48:46;;;;;;;30.88;19.45;;;;;;;3.21;100.00;102127.16;4990541;28;20033;-85
2021/10/24 05:51:12;;;;;;;32.17;21.30;;;;;;;3.22;100.00;102128.88;4992412;28;20130;-81
2021/10/24 05:53:37;;;;;;;28.92;20.13;;;;;;;3.22;100.00;102117.41;4978131;28;20042;-82
2021/10/24 05:56:03;;;;;;;32.15;19.92;;;;;;;3.21;100.00;102116.56;5003975;28;20033;-83
2021/10/24 05:58:32;;;;;;;34.67;20.25;;;;;;;3.21;100.00;102116.56;5006094;28;20044;-82
2021/10/24 06:00:58;;;;;;;32.08;21.08;;;;;;;3.23;100.00;102120.00;5006033;28;20042;-86
2021/10/24 06:03:25;;;;;;;33.88;21.30;;;;;;;3.22;100.00;102118.25;4991403;28;20053;-83
2021/10/24 06:05:50;;;;;;;33.40;22.10;;;;;;;3.21;100.00;102116.56;4998703;28;20057;-84
2021/10/24 06:08:23;;;;;;;34.33;20.92;;;;;;;3.24;100.00;102119.03;4980896;28;20041;-84
2021/10/24 06:10:53;;;;;;;29.95;20.63;;;;;;;3.20;100.00;102114.84;5011135;28;20043;-85
2021/10/24 06:13:18;;;;;;;32.83;20.30;;;;;;;3.21;100.00;102116.56;5011433;28;20049;-85
2021/10/24 06:15:44;;;;;;;30.45;19.02;;;;;;;3.20;100.00;102111.34;4996632;28;20042;-82
2021/10/24 06:18:10;;;;;;;32.60;20.10;;;;;;;3.22;100.00;102115.59;5005308;28;20033;-86
2021/10/24 06:20:37;;;;;;;35.50;21.73;;;;;;;3.21;100.00;102116.56;5007031;28;20133;-84
2021/10/24 06:23:07;;;;;;;34.20;21.00;;;;;;;3.21;100.00;102110.41;4989777;28;20124;-81
2021/10/24 06:25:35;;;;;;;36.03;21.48;;;;;;;3.22;100.00;102107.63;4977655;28;20502;-85
2021/10/24 06:28:00;;;;;;;31.30;19.38;;;;;;;3.22;100.00;102106.78;4993269;28;20070;-82
2021/10/24 06:30:26;;;;;;;34.97;20.08;;;;;;;3.23;100.00;102109.38;5009061;28;20060;-82
2021/10/24 06:32:53;;;;;;;31.95;21.10;;;;;;;3.24;100.00;102116.38;5007706;28;20042;-83
2021/10/24 06:35:18;;;;;;;34.97;21.38;;;;;;;3.25;100.00;102109.28;5014806;28;20038;-83
2021/10/24 06:37:46;;;;;;;31.88;20.08;;;;;;;3.24;100.00;102107.56;4997626;28;20042;-81
2021/10/24 06:40:13;;;;;;;31.05;19.73;;;;;;;3.23;100.00;102114.69;4978543;28;20049;-82
2021/10/24 06:42:39;;;;;;;32.70;22.35;;;;;;;3.25;100.00;102106.63;4979796;28;20167;-84
2021/10/24 06:45:06;;;;;;;35.08;22.95;;;;;;;3.28;100.00;102109.97;5012827;28;20112;-82
2021/10/24 06:47:32;;;;;;;34.55;21.75;;;;;;;3.32;100.00;102108.00;4993686;28;21559;-83
2021/10/24 06:49:57;;;;;;;39.53;22.30;;;;;;;3.33;100.00;102109.72;4980425;28;20104;-83
2021/10/24 06:52:24;;;;;;;35.92;21.38;;;;;;;3.34;100.00;102114.09;4956181;28;20045;-82
2021/10/24 06:54:49;;;;;;;33.92;21.65;;;;;;;3.38;100.00;102111.16;5011063;28;20038;-82
2021/10/24 06:57:15;;;;;;;31.23;20.60;;;;;;;3.38;100.00;102110.31;5012889;28;20129;-84
2021/10/24 06:59:42;;;;;;;34.42;21.73;;;;;;;3.42;100.00;102116.31;4994601;28;20069;-84
2021/10/24 07:02:11;;;;;;;31.77;20.83;;;;;;;3.46;100.00;102110.75;4979828;28;20185;-84
2021/10/24 07:04:37;;;;;;;32.47;21.48;;;;;;;3.51;100.00;102110.47;5014057;28;20189;-81
2021/10/24 07:07:03;;;;;;;35.50;21.30;;;;;;;3.55;100.00;102109.38;5011814;28;20137;-83
2021/10/24 07:09:28;;;;;;;32.13;21.02;;;;;;;3.60;100.00;102113.47;4996024;28;20099;-84
2021/10/24 07:11:53;;;;;;;32.40;20.77;;;;;;;3.67;100.00;102113.13;4974200;28;20030;-85
2021/10/24 07:14:21;;;;;;;31.98;20.48;;;;;;;3.72;100.00;102114.59;4989613;28;20037;-84
2021/10/24 07:16:48;;;;;;;31.80;19.05;;;;;;;3.78;100.00;102108.91;4997291;28;20133;-87
2021/10/24 07:19:14;;;;;;;29.83;19.05;;;;;;;3.83;100.00;102109.50;5005547;28;20045;-85
2021/10/24 07:21:42;;;;;;;28.45;18.17;;;;;;;3.92;100.00;102104.63;4973473;28;20045;-85
2021/10/24 07:24:08;;;;;;;27.67;17.87;;;;;;;3.96;100.00;102104.34;5001407;28;20063;-82
2021/10/24 07:26:34;;;;;;;27.30;18.20;;;;;;;4.04;100.00;102102.09;5004859;28;20296;-88
2021/10/24 07:29:00;;;;;;;27.23;17.55;;;;;;;4.12;100.00;102095.50;5005252;28;20057;-81
2021/10/24 07:31:26;;;;;;;27.02;17.45;;;;;;;4.19;100.00;102097.66;4990021;28;20133;-83
2021/10/24 07:33:53;;;;;;;29.17;17.75;;;;;;;4.28;100.00;102099.78;5010903;28;20045;-82
2021/10/24 07:36:18;;;;;;;27.67;17.92;;;;;;;4.36;100.00;102099.31;5010488;28;20042;-84
2021/10/24 07:38:44;;;;;;;24.42;16.83;;;;;;;4.46;100.00;102094.28;4977602;28;20117;-83
2021/10/24 07:41:09;;;;;;;27.38;16.65;;;;;;;4.52;100.00;102096.59;4977285;28;20044;-85
2021/10/24 07:43:35;;;;;;;22.77;15.65;;;;;;;4.61;100.00;102092.53;5006914;28;20042;-84
2021/10/24 07:46:00;;;;;;;22.27;15.65;;;;;;;4.67;100.00;102090.34;4993173;28;20046;-82
2021/10/24 07:48:26;;;;;;;21.15;15.45;;;;;;;4.78;100.00;102087.03;5008869;28;20108;-83
2021/10/24 07:50:52;;;;;;;22.63;15.35;;;;;;;4.86;100.00;102089.19;5009709;28;20042;-85
2021/10/24 07:53:19;;;;;;;21.13;14.10;;;;;;;4.93;100.00;102087.88;5008830;28;20038;-84
2021/10/24 07:55:45;;;;;;;20.70;14.20;;;;;;;5.01;100.00;102088.25;5009271;28;20546;-85
2021/10/24 07:58:10;;;;;;;19.77;13.32;;;;;;;5.11;100.00;102084.03;5010516;28;20140;-84
2021/10/24 08:00:36;;;;;;;19.98;13.27;;;;;;;5.19;100.00;102086.22;5008445;28;20512;-84
2021/10/24 08:03:08;;;;;;;23.23;13.52;;;;;;;5.31;100.00;102089.91;5006387;28;20052;-82
2021/10/24 08:05:34;;;;;;;17.90;12.52;;;;;;;5.36;100.00;102078.00;4998172;28;20399;-84
2021/10/24 08:08:00;;;;;;;21.48;12.82;;;;;;;5.46;100.00;102080.91;4989789;28;20034;-84
2021/10/24 08:10:25;;;;;;;19.98;12.43;;;;;;;5.57;100.00;102080.22;4992828;28;20049;-84
2021/10/24 08:12:52;;;;;;;20.95;12.30;;;;;;;5.66;100.00;102075.16;4976888;28;20041;-82
2021/10/24 08:15:20;;;;;;;19.98;11.38;;;;;;;5.73;99.77;102072.94;4999720;28;20482;-83
2021/10/24 08:17:48;;;;;;;17.95;11.45;;;;;;;5.86;99.80;102067.66;4990308;28;20513;-83
2021/10/24 08:20:17;;;;;;;16.75;10.65;;;;;;;5.96;99.13;102058.13;4988455;28;20049;-84
2021/10/24 08:22:44;;;;;;;18.30;10.95;;;;;;;6.06;98.42;102056.53;4987578;28;20478;-80
2021/10/24 08:25:13;;;;;;;15.82;10.88;;;;;;;6.15;97.78;102048.88;4999982;28;20558;-84
2021/10/24 08:27:39;;;;;;;14.93;10.13;;;;;;;6.25;96.82;102039.28;4996241;28;20115;-85
2021/10/24 08:30:07;;;;;;;17.27;10.50;;;;;;;6.33;96.42;102037.81;4996281;28;20543;-81
2021/10/24 08:32:33;;;;;;;16.80;10.05;;;;;;;6.43;95.43;102039.81;4967842;28;20041;-80
2021/10/24 08:35:00;;;;;;;16.95;8.98;;;;;;;6.53;95.05;102038.22;4985064;28;20030;-84
2021/10/24 08:37:26;;;;;;;16.77;9.35;;;;;;;6.63;94.58;102033.09;5003639;28;20048;-82
2021/10/24 08:39:56;;;;;;;18.17;9.40;;;;;;;6.75;95.02;102024.22;4978818;28;20327;-83
2021/10/24 08:42:33;;;;;;;14.13;9.00;;;;;;;6.86;94.30;102024.31;5005494;28;20915;-85
2021/10/24 08:45:01;;;;;;;13.45;8.13;;;;;;;6.98;93.25;102015.41;5006071;28;20524;-84
2021/10/24 08:47:27;;;;;;;15.85;8.48;;;;;;;7.05;91.89;102013.16;4973712;28;20045;-84
2021/10/24 08:49:54;;;;;;;12.52;7.80;;;;;;;7.16;92.02;102012.34;5006843;28;20038;-82
2021/10/24 08:52:25;;;;;;;11.90;7.55;;;;;;;7.19;90.13;102009.47;5002657;28;20050;-83
2021/10/24 08:54:53;;;;;;;15.63;7.10;;;;;;;7.28;90.48;102006.13;5009774;28;20556;-85
2021/10/24 08:57:26;;;;;;;10.35;7.40;;;;;;;7.38;89.93;102007.16;4990864;28;20107;-83
2021/10/24 08:59:53;;;;;;;11.93;7.55;;;;;;;7.45;89.04;102008.41;5005113;28;20035;-84
2021/10/24 09:02:19;;;;;;;9.73;6.82;;;;;;;7.53;88.20;101998.97;5005128;28;20050;-83
2021/10/24 09:04:50;;;;;;;14.82;6.60;;;;;;;7.61;88.26;101992.06;5007229;28;20158;-83
2021/10/24 09:07:19;;;;;;;10.90;6.20;;;;;;;7.69;87.71;101997.69;4996720;28;20042;-82
2021/10/24 09:09:45;;;;;;;;;;;;;;;7.75;86.63;101996.38;4985067;28;20103;-82
2021/10/24 09:12:14;;;;;;;11.13;6.53;;;;;;;7.75;87.65;101991.03;4981076;28;19917;-85
2021/10/24 09:14:53;;;;;;;11.75;6.15;;;;;;;7.85;86.93;101986.69;4959562;28;20482;-82
2021/10/24 09:17:19;;;;;;;9.80;6.32;;;;;;;7.97;85.94;101981.34;5007336;28;20107;-85
2021/10/24 09:19:50;;;;;;;11.00;5.32;;;;;;;8.05;85.37;101971.78;5011017;28;20038;-80
2021/10/24 09:22:31;;;;;;;9.05;5.40;;;;;;;8.14;84.98;101981.78;4995219;28;20037;-84
2021/10/24 09:25:07;;;;;;;8.30;5.20;;;;;;;8.28;84.83;101978.00;4998617;28;20456;-82
2021/10/24 09:27:40;;;;;;;8.35;5.57;;;;;;;8.42;84.88;101976.09;4998526;28;20073;-83
2021/10/24 09:30:12;;;;;;;9.25;4.72;;;;;;;8.51;83.10;101978.03;4995256;28;20517;-84
2021/10/24 09:32:58;;;;;;;8.02;5.18;;;;;;;8.53;82.93;101970.75;5000190;28;20128;-81
2021/10/24 09:35:27;;;;;;;7.78;5.13;;;;;;;8.63;83.64;101971.75;5001649;28;20095;-84
2021/10/24 09:37:54;;;;;;;8.77;4.82;;;;;;;8.79;83.10;101971.34;4998486;28;20100;-86
2021/10/24 09:40:27;;;;;;;9.68;6.03;;;;;;;8.87;82.56;101973.41;4993468;28;20038;-82
2021/10/24 09:43:28;;;;;;;8.38;4.60;;;;;;;9.01;80.78;101957.06;5000001;28;20125;-82
2021/10/24 09:45:57;;;;;;;11.00;4.93;;;;;;;9.09;80.48;101948.38;4953019;28;20053;-83
2021/10/24 09:48:26;;;;;;;7.88;5.00;;;;;;;9.09;80.57;101951.94;4995723;28;20398;-86
2021/10/24 09:50:54;;;;;;;8.93;5.28;;;;;;;9.15;80.15;101948.75;4965831;28;20084;-82
2021/10/24 09:53:35;;;;;;;10.25;5.50;;;;;;;9.18;80.64;101953.84;4992166;28;20065;-81
2021/10/24 09:56:07;;;;;;;9.82;5.43;;;;;;;9.20;80.15;101948.34;4970267;28;20479;-83
2021/10/24 09:58:49;;;;;;;8.55;5.07;;;;;;;9.23;80.94;101943.59;5003888;28;20045;-84
2021/10/24 10:01:16;;;;;;;8.48;5.68;;;;;;;9.29;80.11;101947.59;4971487;28;20458;-83
2021/10/24 10:03:49;;;;;;;12.38;5.60;;;;;;;9.31;81.03;101947.47;4987330;28;20034;-83
2021/10/24 10:06:23;;;;;;;9.63;5.70;;;;;;;9.35;80.94;101946.22;5000809;28;20072;-81
2021/10/24 10:08:48;;;;;;;8.68;5.85;;;;;;;9.39;81.84;101945.00;4978096;28;20050;-87
2021/10/24 10:11:28;;;;;;;7.75;4.97;;;;;;;9.47;81.28;101929.16;4994274;28;20542;-84
2021/10/24 10:14:13;;;;;;;10.35;6.20;;;;;;;9.55;82.00;101926.66;4971324;28;20053;-82
2021/10/24 10:16:50;;;;;;;10.95;5.15;;;;;;;9.64;80.32;101931.25;4986376;28;20269;-85
2021/10/24 10:19:27;;;;;;;9.05;5.93;;;;;;;9.70;81.78;101921.84;4992196;28;20038;-82
2021/10/24 10:22:21;;;;;;;10.25;5.82;;;;;;;9.80;81.22;101932.59;4991506;28;20050;-86
2021/10/24 10:24:57;;;;;;;9.57;5.57;;;;;;;9.83;80.16;101929.66;4987695;28;20490;-87
2021/10/24 10:27:34;;;;;;;9.38;4.63;;;;;;;9.96;78.91;101934.84;4994064;28;20042;-85
2021/10/24 10:30:08;;;;;;;9.13;4.80;;;;;;;10.04;77.23;101929.63;5007386;28;20034;-82
2021/10/24 10:32:36;;;;;;;8.63;4.45;;;;;;;10.12;75.94;101925.28;4992774;28;20046;-84
2021/10/24 10:35:10;;;;;;;9.18;4.30;;;;;;;10.18;76.76;101937.31;4994272;28;20042;-84
2021/10/24 10:37:50;;;;;;;7.97;3.85;;;;;;;10.25;74.53;101924.25;4991106;28;20124;-85
2021/10/24 10:40:33;;;;;;;9.88;4.20;;;;;;;10.31;76.44;101924.56;5011288;28;20133;-83
2021/10/24 10:43:22;;;;;;;8.30;4.68;;;;;;;10.43;75.71;101922.66;5007783;28;20180;-86
2021/10/24 10:45:59;;;;;;;7.50;4.28;;;;;;;10.50;75.43;101931.88;4963388;28;20429;-87
2021/10/24 10:48:35;;;;;;;10.07;4.60;;;;;;;10.53;76.02;101928.91;4993365;28;20046;-86
2021/10/24 10:51:24;;;;;;;11.13;4.90;;;;;;;10.60;75.82;101921.16;4992169;28;20053;-81
2021/10/24 10:53:52;;;;;;;9.45;5.05;;;;;;;10.68;74.70;101918.63;4990389;28;20140;-84
2021/10/24 10:56:24;;;;;;;8.00;4.40;;;;;;;10.70;72.80;101916.63;4997311;28;20630;-88
2021/10/24 10:58:51;;;;;;;9.02;4.20;;;;;;;10.73;73.42;101913.72;5002162;28;20045;-84
2021/10/24 11:01:34;;;;;;;11.80;4.43;;;;;;;10.79;74.52;101921.22;4978668;28;20075;-87
2021/10/24 11:04:08;;;;;;;7.22;4.22;;;;;;;10.88;73.87;101907.94;4971816;28;20077;-85
2021/10/24 11:06:34;;;;;;;9.75;4.82;;;;;;;10.98;72.74;101909.63;5005326;28;20040;-85
2021/10/24 11:09:02;;;;;;;8.55;4.50;;;;;;;11.03;73.92;101902.00;5004557;28;20132;-84
2021/10/24 11:11:41;;;;;;;12.52;4.57;;;;;;;11.16;74.58;101898.19;4999561;28;20042;-87
2021/10/24 11:14:15;;;;;;;6.63;4.30;;;;;;;11.21;74.60;101895.94;4988403;28;20042;-84
2021/10/24 11:16:44;;;;;;;9.77;4.18;;;;;;;11.34;74.86;101896.50;4991992;28;20052;-82
2021/10/24 11:19:46;;;;;;;8.82;4.22;;;;;;;11.36;73.37;101901.72;5003933;28;20042;-90